Time;durP1;ratioP1;P1;durP2;ratioP2;P2;SDS_P1;SDS_P2;PMS_P1;PMS_P2;Temp;Humidity;BMP_temperature;BMP_pressure;BME280_temperature;BME280_humidity;BME280_pressure;Samples;Min_cycle;Max_cycle;Signal;HPM_P1;HPM_P2
2023/05/07 00:01:22;;;;;;;;;;;;;;;15.98;100.00;99895.81;5092456;28;19924;-58
2023/05/07 00:03:47;;;;;;;;;;;;;;;15.95;100.00;99890.63;5092638;28;19923;-57
2023/05/07 00:06:12;;;;;;;;;;;;;;;15.92;100.00;99882.72;5090455;28;19977;-57
2023/05/07 00:08:38;;;;;;;;;;;;;;;15.94;100.00;99895.13;5092049;28;19923;-58
2023/05/07 00:11:03;;;;;;;;;;;;;;;15.96;100.00;99897.72;5092312;28;19972;-57
2023/05/07 00:13:35;;;;;;;;;;;;;;;15.93;100.00;99903.25;5092155;28;19973;-57
2023/05/07 00:16:00;;;;;;;;;;;;;;;15.90;100.00;99898.91;5091513;28;20757;-57
2023/05/07 00:18:25;;;;;;;;;;;;;;;15.91;100.00;99894.41;5092367;28;20031;-57
2023/05/07 00:20:50;;;;;;;;;;;;;;;15.84;100.00;99893.91;5092519;28;19916;-58
2023/05/07 00:23:16;;;;;;;;;;;;;;;15.83;100.00;99887.66;5091405;28;19920;-57
2023/05/07 00:25:41;;;;;;;;;;;;;;;15.82;100.00;99893.97;5091159;28;20332;-57
2023/05/07 00:28:06;;;;;;;;;;;;;;;15.75;100.00;99889.91;5089254;28;19998;-57
2023/05/07 00:30:31;;;;;;;;;;;;;;;15.75;100.00;99889.91;5090154;28;19920;-57
2023/05/07 00:32:57;;;;;;;;;;;;;;;15.78;100.00;99887.03;5090020;28;19947;-57
2023/05/07 00:35:22;;;;;;;;;;;;;;;15.75;100.00;99889.91;5089133;28;19916;-56
2023/05/07 00:37:48;;;;;;;;;;;;;;;15.70;100.00;99891.97;5089936;28;20319;-57
2023/05/07 00:40:14;;;;;;;;;;;;;;;15.64;100.00;99897.69;5090148;28;20068;-57
2023/05/07 00:42:39;;;;;;;;;;;;;;;15.63;100.00;99901.31;5091024;28;20014;-57
2023/05/07 00:45:05;;;;;;;;;;;;;;;15.64;100.00;99902.16;5091754;28;20398;-57
2023/05/07 00:47:30;;;;;;;;;;;;;;;15.64;100.00;99902.16;5090783;28;19916;-57
2023/05/07 00:49:56;;;;;;;;;;;;;;;15.66;100.00;99898.47;5092734;28;19930;-57
2023/05/07 00:52:24;;;;;;;;;;;;;;;15.66;100.00;99903.84;5072884;28;20288;-57
2023/05/07 00:54:50;;;;;;;;;;;;;;;15.65;100.00;99903.88;5091800;28;19923;-57
2023/05/07 00:57:15;;;;;;;;;;;;;;;15.65;100.00;99896.72;5090947;28;20624;-57
2023/05/07 00:59:41;;;;;;;;;;;;;;;15.65;100.00;99898.53;5091448;28;20375;-57
2023/05/07 01:02:06;;;;;;;;;;;;;;;15.60;100.00;99885.38;5091667;28;19920;-55
2023/05/07 01:04:32;;;;;;;;;;;;;;;15.56;100.00;99881.16;5090485;28;19954;-55
2023/05/07 01:06:58;;;;;;;;;;;;;;;15.49;100.00;99877.06;5093753;28;20486;-55
2023/05/07 01:09:24;;;;;;;;;;;;;;;15.44;100.00;99873.78;5090380;28;19927;-55
2023/05/07 01:11:50;;;;;;;;;;;;;;;15.40;100.00;99871.34;5091175;28;20343;-55
2023/05/07 01:14:16;;;;;;;;;;;;;;;15.36;100.00;99881.34;5090648;28;19920;-55
2023/05/07 01:16:41;;;;;;;;;;;;;;;15.32;100.00;99878.91;5094057;28;19915;-55
2023/05/07 01:19:07;;;;;;;;;;;;;;;15.33;100.00;99892.22;5090719;28;19998;-55
2023/05/07 01:21:34;;;;;;;;;;;;;;;15.31;100.00;99883.41;5091043;28;19916;-55
2023/05/07 01:24:00;;;;;;;;;;;;;;;15.29;100.00;99885.28;5090416;28;20474;-55
2023/05/07 01:26:25;;;;;;;;;;;;;;;15.26;100.00;99882.78;5089674;28;19920;-55
2023/05/07 01:28:51;;;;;;;;;;;;;;;15.27;100.00;99875.63;5090614;28;20670;-55
2023/05/07 01:31:16;;;;;;;;;;;;;;;15.33;100.00;99881.50;5089915;28;20459;-56
2023/05/07 01:33:44;;;;;;;;;;;;;;;15.38;100.00;99879.44;5090805;28;20416;-55
2023/05/07 01:36:11;;;;;;;;;;;;;;;15.45;100.00;99886.22;5089886;28;19950;-55
2023/05/07 01:38:37;;;;;;;;;;;;;;;15.44;100.00;99889.88;5090725;28;20414;-55
2023/05/07 01:41:02;;;;;;;;;;;;;;;15.42;100.00;99891.75;5090200;28;20367;-55
2023/05/07 01:43:29;;;;;;;;;;;;;;;15.40;100.00;99890.13;5090622;28;19916;-55
2023/05/07 01:45:55;;;;;;;;;;;;;;;15.38;100.00;99895.53;5093332;28;20352;-55
2023/05/07 01:48:20;;;;;;;;;;;;;;;15.35;100.00;99889.47;5089987;28;20003;-56
2023/05/07 01:50:46;;;;;;;;;;;;;;;15.36;100.00;99891.19;5090047;28;19955;-55
2023/05/07 01:53:11;;;;;;;;;;;;;;;15.31;100.00;99880.72;5088739;28;19923;-55
2023/05/07 01:55:36;;;;;;;;;;;;;;;15.29;100.00;99884.41;5089803;28;19950;-55
2023/05/07 01:58:02;;;;;;;;;;;;;;;15.26;100.00;99881.91;5088998;28;19913;-55
2023/05/07 02:00:27;;;;;;;;;;;;;;;15.23;100.00;99882.94;5088466;28;19920;-55
2023/05/07 02:02:53;;;;;;;;;;;;;;;15.20;100.00;99880.44;5071234;28;20007;-55
2023/05/07 02:05:18;;;;;;;;;;;;;;;15.14;100.00;99886.09;5088981;28;19930;-55
2023/05/07 02:07:43;;;;;;;;;;;;;;;15.06;100.00;99899.03;5090223;28;19912;-55
2023/05/07 02:10:09;;;;;;;;;;;;;;;15.04;100.00;99886.69;5089560;28;19912;-55
2023/05/07 02:12:34;;;;;;;;;;;;;;;15.01;100.00;99882.34;5089561;28;20399;-55
2023/05/07 02:15:00;;;;;;;;;;;;;;;14.97;100.00;99888.81;5089672;28;19965;-55
2023/05/07 02:17:25;;;;;;;;;;;;;;;14.96;100.00;99895.09;5089061;28;19943;-55
2023/05/07 02:19:51;;;;;;;;;;;;;;;14.96;100.00;99886.22;5089829;28;19958;-55
2023/05/07 02:22:16;;;;;;;;;;;;;;;14.90;100.00;99891.88;5088363;28;19931;-55
2023/05/07 02:24:41;;;;;;;;;;;;;;;14.90;100.00;99892.75;5089992;28;19916;-55
2023/05/07 02:27:06;;;;;;;;;;;;;;;14.90;100.00;99887.41;5090003;28;19920;-55
2023/05/07 02:29:32;;;;;;;;;;;;;;;14.87;100.00;99887.56;5088864;28;19920;-55
2023/05/07 02:31:57;;;;;;;;;;;;;;;14.85;100.00;99884.09;5089593;28;20024;-55
2023/05/07 02:34:22;;;;;;;;;;;;;;;14.85;100.00;99881.41;5089882;28;19923;-55
2023/05/07 02:36:47;;;;;;;;;;;;;;;14.89;100.00;99880.28;5088789;28;20069;-55
2023/05/07 02:39:13;;;;;;;;;;;;;;;14.89;100.00;99879.47;5090249;28;19916;-55
2023/05/07 02:41:39;;;;;;;;;;;;;;;14.89;100.00;99882.13;5091526;28;19938;-55
2023/05/07 02:44:04;;;;;;;;;;;;;;;14.90;100.00;99886.53;5089854;28;20383;-55
2023/05/07 02:46:30;;;;;;;;;;;;;;;14.91;100.00;99889.13;5089735;28;19914;-55
2023/05/07 02:48:55;;;;;;;;;;;;;;;14.90;100.00;99891.88;5089573;28;19916;-55
2023/05/07 02:51:22;;;;;;;;;;;;;;;14.68;100.00;99846.59;5088416;28;20368;-55
2023/05/07 02:53:47;;;;;;;;;;;;;;;14.84;100.00;99877.03;5089666;28;19988;-55
2023/05/07 02:56:12;;;;;;;;;;;;;;;14.77;100.00;99880.97;5088970;28;20169;-55
2023/05/07 02:58:39;;;;;;;;;;;;;;;14.76;100.00;99884.56;5089381;28;19970;-55
2023/05/07 03:01:04;;;;;;;;;;;;;;;14.74;100.00;99886.47;5089790;28;19916;-56
2023/05/07 03:03:30;;;;;;;;;;;;;;;14.82;100.00;99878.03;5088412;28;19922;-55
2023/05/07 03:05:55;;;;;;;;;;;;;;;14.78;100.00;99882.69;5089591;28;19951;-55
2023/05/07 03:08:20;;;;;;;;;;;;;;;14.73;100.00;99883.88;5089277;28;19947;-55
2023/05/07 03:10:49;;;;;;;;;;;;;;;14.68;100.00;99884.09;5087749;28;19920;-55
2023/05/07 03:13:14;;;;;;;;;;;;;;;14.64;100.00;99884.34;5071701;28;19916;-55
2023/05/07 03:15:40;;;;;;;;;;;;;;;14.64;100.00;99878.97;5069718;28;19923;-55
2023/05/07 03:18:05;;;;;;;;;;;;;;;14.67;100.00;99881.50;5089311;28;19994;-55
2023/05/07 03:20:30;;;;;;;;;;;;;;;14.71;100.00;99880.41;5089504;28;20303;-56
2023/05/07 03:22:56;;;;;;;;;;;;;;;14.69;100.00;99876.94;5089096;28;19916;-56
2023/05/07 03:25:21;;;;;;;;;;;;;;;14.69;100.00;99885.84;5098704;28;19923;-55
2023/05/07 03:27:46;;;;;;;;;;;;;;;14.52;100.00;99875.13;5108768;28;20375;-55
2023/05/07 03:30:12;;;;;;;;;;;;;;;14.46;100.00;99887.00;5098850;28;19916;-55
2023/05/07 03:32:37;;;;;;;;;;;;;;;14.40;100.00;99879.28;5088503;28;19920;-56
2023/05/07 03:35:03;;;;;;;;;;;;;;;14.39;100.00;99879.38;5088521;28;19947;-55
2023/05/07 03:37:28;;;;;;;;;;;;;;;14.37;100.00;99881.25;5089128;28;19920;-55
2023/05/07 03:39:53;;;;;;;;;;;;;;;14.35;100.00;99883.13;5088656;28;19920;-55
2023/05/07 03:42:19;;;;;;;;;;;;;;;14.35;100.00;99872.41;5091235;28;19916;-55
2023/05/07 03:44:44;;;;;;;;;;;;;;;14.36;100.00;99871.50;5087269;28;19920;-56
2023/05/07 03:47:10;;;;;;;;;;;;;;;14.32;100.00;99877.94;5089367;28;20648;-55
2023/05/07 03:49:35;;;;;;;;;;;;;;;14.31;100.00;99879.75;5084484;28;19943;-56
2023/05/07 03:52:00;;;;;;;;;;;;;;;14.24;100.00;99870.25;5072096;28;19964;-55
2023/05/07 03:54:26;;;;;;;;;;;;;;;14.22;100.00;99873.94;5080333;28;19959;-55
2023/05/07 03:56:51;;;;;;;;;;;;;;;14.25;100.00;99882.72;5091951;28;19919;-55
2023/05/07 03:59:16;;;;;;;;;;;;;;;14.27;100.00;99885.31;5092658;28;19965;-55
2023/05/07 04:01:41;;;;;;;;;;;;;;;14.24;100.00;99888.13;5092701;28;19912;-55
2023/05/07 04:04:07;;;;;;;;;;;;;;;14.23;100.00;99891.75;5091694;28;20379;-55
2023/05/07 04:06:32;;;;;;;;;;;;;;;14.25;100.00;99897.88;5090924;28;19943;-55
2023/05/07 04:08:57;;;;;;;;;;;;;;;14.23;100.00;99897.09;5091281;28;19927;-55
2023/05/07 04:11:23;;;;;;;;;;;;;;;14.30;100.00;99901.22;5089086;28;20066;-55
2023/05/07 04:13:48;;;;;;;;;;;;;;;14.34;100.00;99886.75;5091774;28;20092;-55
2023/05/07 04:16:13;;;;;;;;;;;;;;;14.35;100.00;99899.19;5091501;28;19916;-55
2023/05/07 04:18:39;;;;;;;;;;;;;;;14.34;100.00;99892.97;5091834;28;20280;-55
2023/05/07 04:21:04;;;;;;;;;;;;;;;14.32;100.00;99899.34;5092089;28;20387;-55
2023/05/07 04:23:29;;;;;;;;;;;;;;;14.34;100.00;99894.78;5073069;28;20458;-55
2023/05/07 04:25:55;;;;;;;;;;;;;;;14.37;100.00;99899.97;5092018;28;20453;-55
2023/05/07 04:28:21;;;;;;;;;;;;;;;14.43;100.00;99897.84;5090807;28;19916;-56
2023/05/07 04:30:46;;;;;;;;;;;;;;;14.48;100.00;99905.66;5073950;28;19926;-55
2023/05/07 04:33:11;;;;;;;;;;;;;;;14.52;100.00;99907.25;5092120;28;20296;-55
2023/05/07 04:35:37;;;;;;;;;;;;;;;14.51;100.00;99905.53;5091277;28;19923;-55
2023/05/07 04:38:02;;;;;;;;;;;;;;;14.53;100.00;99907.16;5092121;28;19920;-55
2023/05/07 04:40:27;;;;;;;;;;;;;;;14.55;100.00;99912.44;5091118;28;19916;-55
2023/05/07 04:42:53;;;;;;;;;;;;;;;14.55;100.00;99911.59;5091556;28;19923;-55
2023/05/07 04:45:18;;;;;;;;;;;;;;;14.59;100.00;99914.03;5091817;28;20524;-55
2023/05/07 04:47:43;;;;;;;;;;;;;;;14.64;100.00;99916.47;5089920;28;19975;-55
2023/05/07 04:50:09;;;;;;;;;;;;;;;14.66;100.00;99915.47;5091519;28;19951;-55
2023/05/07 04:52:34;;;;;;;;;;;;;;;14.65;100.00;99931.56;5090922;28;19927;-55
2023/05/07 04:55:00;;;;;;;;;;;;;;;14.65;100.00;99940.47;5091833;28;19924;-55
2023/05/07 04:57:26;;;;;;;;;;;;;;;14.67;100.00;99941.28;5091642;28;20443;-55
2023/05/07 04:59:51;;;;;;;;;;;;;;;14.69;100.00;99946.53;5089690;28;19923;-55
2023/05/07 05:02:17;;;;;;;;;;;;;;;14.69;100.00;99947.44;5090583;28;19920;-55
2023/05/07 05:04:42;;;;;;;;;;;;;;;14.77;100.00;99950.56;5091209;28;19924;-55
2023/05/07 05:07:07;;;;;;;;;;;;;;;14.86;100.00;99954.59;5090854;28;19930;-55
2023/05/07 05:09:32;;;;;;;;;;;;;;;14.93;100.00;99948.84;5094049;28;19916;-55
2023/05/07 05:11:58;;;;;;;;;;;;;;;15.01;100.00;99954.66;5091290;28;19928;-55
2023/05/07 05:14:24;;;;;;;;;;;;;;;15.07;100.00;99949.00;5091314;28;20492;-55
2023/05/07 05:16:49;;;;;;;;;;;;;;;15.14;100.00;99945.03;5089774;28;19924;-56
2023/05/07 05:19:14;;;;;;;;;;;;;;;15.21;100.00;99941.09;5090478;28;19923;-56
2023/05/07 05:21:40;;;;;;;;;;;;;;;15.30;100.00;99940.63;5089731;28;19920;-55
2023/05/07 05:24:05;;;;;;;;;;;;;;;15.45;100.00;99945.19;5090314;28;20289;-55
2023/05/07 05:26:30;;;;;;;;;;;;;;;15.52;100.00;99941.25;5092314;28;19920;-55
2023/05/07 05:28:55;;;;;;;;;;;;;;;15.60;100.00;99948.88;5088754;28;19916;-55
2023/05/07 05:31:21;;;;;;;;;;;;;;;15.63;100.00;99949.56;5089796;28;20375;-55
2023/05/07 05:33:46;;;;;;;;;;;;;;;15.54;100.00;99958.13;5089908;28;19982;-55
2023/05/07 05:36:12;;;;;;;;;;;;;;;15.64;100.00;99947.75;5090834;28;20002;-55
2023/05/07 05:38:38;;;;;;;;;;;;;;;15.83;100.00;99960.06;5090459;28;19951;-55
2023/05/07 05:41:03;;;;;;;;;;;;;;;16.09;100.00;99957.78;5093019;28;19962;-55
2023/05/07 05:43:28;;;;;;;;;;;;;;;16.60;100.00;99952.16;5089173;28;19919;-55
2023/05/07 05:45:55;;;;;;;;;;;;;;;16.98;98.27;99945.41;5089433;28;19982;-55
2023/05/07 05:48:21;;;;;;;;;;;;;;;17.09;94.47;99943.81;5089149;28;19920;-55
2023/05/07 05:50:46;;;;;;;;;;;;;;;17.25;92.93;99953.63;5089562;28;19952;-55
2023/05/07 05:53:11;;;;;;;;;;;;;;;17.48;92.55;99951.28;5089952;28;19916;-55
2023/05/07 05:55:36;;;;;;;;;;;;;;;17.66;91.62;99955.53;5088819;28;19920;-55
2023/05/07 05:58:02;;;;;;;;;;;;;;;17.63;88.90;99966.47;5089424;28;20599;-55
2023/05/07 06:00:27;;;;;;;;;;;;;;;17.87;88.51;99972.16;5089521;28;19923;-55
2023/05/07 06:02:52;;;;;;;;;;;;;;;18.12;88.32;99954.34;5090364;28;20360;-55
2023/05/07 06:05:18;;;;;;;;;;;;;;;18.34;87.40;99962.78;5089450;28;19928;-55
2023/05/07 06:07:43;;;;;;;;;;;;;;;18.44;85.82;99964.88;5089502;28;19927;-55
2023/05/07 06:10:09;;;;;;;;;;;;;;;18.46;84.85;99969.22;5090220;28;19916;-56
2023/05/07 06:12:34;;;;;;;;;;;;;;;18.39;83.74;99965.19;5089287;28;19994;-56
2023/05/07 06:14:59;;;;;;;;;;;;;;;18.53;83.76;99969.69;5089940;28;19963;-56
2023/05/07 06:17:25;;;;;;;;;;;;;;;18.71;84.36;99976.53;5069905;28;19926;-56
2023/05/07 06:19:51;;;;;;;;;;;;;;;18.80;82.56;99984.00;5085971;28;19951;-56
2023/05/07 06:22:16;;;;;;;;;;;;;;;18.82;82.62;99987.47;5090651;28;19923;-56
2023/05/07 06:24:41;;;;;;;;;;;;;;;18.93;82.51;99975.00;5089039;28;19917;-56
2023/05/07 06:27:07;;;;;;;;;;;;;;;18.98;81.52;99989.03;5071368;28;20387;-56
2023/05/07 06:29:33;;;;;;;;;;;;;;;18.98;82.43;99985.47;5090174;28;20308;-57
2023/05/07 06:32:18;;;;;;;;;;;;;;;19.26;81.51;99993.41;5088895;28;19928;-55
2023/05/07 06:34:44;;;;;;;;;;;;;;;19.22;78.69;99990.09;5089490;28;19923;-55
2023/05/07 06:37:09;;;;;;;;;;;;;;;19.26;77.72;99998.81;5089376;28;19920;-55
2023/05/07 06:39:34;;;;;;;;;;;;;;;19.16;78.93;100003.97;5089791;28;19924;-56
2023/05/07 06:42:00;;;;;;;;;;;;;;;19.01;79.54;100009.56;5089593;28;20295;-56
2023/05/07 06:44:25;;;;;;;;;;;;;;;19.08;81.26;100000.94;5089385;28;20367;-55
2023/05/07 06:46:50;;;;;;;;;;;;;;;19.19;81.82;99981.34;5074231;28;19917;-55
2023/05/07 06:49:16;;;;;;;;;;;;;;;19.34;81.90;99980.34;5081555;28;19931;-56
2023/05/07 06:51:41;;;;;;;;;;;;;;;19.39;79.23;100002.44;5089636;28;19920;-55
2023/05/07 06:54:06;;;;;;;;;;;;;;;19.32;79.13;100015.47;5092008;28;19920;-56
2023/05/07 06:56:32;;;;;;;;;;;;;;;19.43;78.81;100017.44;5089291;28;19920;-56
2023/05/07 06:58:58;;;;;;;;;;;;;;;19.50;77.97;100002.56;5089859;28;19916;-56
2023/05/07 07:01:23;;;;;;;;;;;;;;;19.69;78.37;99989.50;5089052;28;19916;-56
2023/05/07 07:03:48;;;;;;;;;;;;;;;19.84;77.86;99983.03;5089802;28;19919;-55
2023/05/07 07:06:13;;;;;;;;;;;;;;;19.89;77.78;99993.50;5089270;28;19924;-56
2023/05/07 07:08:39;;;;;;;;;;;;;;;19.85;75.26;99998.25;5089760;28;20276;-55
2023/05/07 07:11:04;;;;;;;;;;;;;;;20.31;75.64;99995.88;5089881;28;20711;-56
2023/05/07 07:13:30;;;;;;;;;;;;;;;20.86;74.39;99999.78;5091074;28;19947;-56
2023/05/07 07:15:55;;;;;;;;;;;;;;;21.38;72.33;100007.56;5089796;28;20410;-56
2023/05/07 07:18:20;;;;;;;;;;;;;;;21.58;71.65;100009.56;5088392;28;19915;-56
2023/05/07 07:20:46;;;;;;;;;;;;;;;21.29;70.31;100004.69;5089375;28;20480;-56
2023/05/07 07:23:11;;;;;;;;;;;;;;;21.60;69.68;100004.03;5091203;28;20431;-56
2023/05/07 07:25:36;;;;;;;;;;;;;;;21.66;68.57;100017.13;5091895;28;19920;-56
2023/05/07 07:28:01;;;;;;;;;;;;;;;21.78;68.04;100013.47;5095518;28;19967;-56
2023/05/07 07:30:27;;;;;;;;;;;;;;;22.03;68.05;100010.53;5092787;28;19927;-56
2023/05/07 07:32:52;;;;;;;;;;;;;;;21.86;67.25;100016.47;5092511;28;19927;-56
2023/05/07 07:35:17;;;;;;;;;;;;;;;21.57;68.49;100023.22;5091696;28;19955;-56
2023/05/07 07:37:43;;;;;;;;;;;;;;;21.27;70.13;100015.63;5093009;28;19920;-56
2023/05/07 07:40:09;;;;;;;;;;;;;;;21.69;69.67;100017.75;5092365;28;19916;-56
2023/05/07 07:42:34;;;;;;;;;;;;;;;22.18;67.81;100015.63;5092880;28;19920;-56
2023/05/07 07:44:59;;;;;;;;;;;;;;;22.15;65.76;100010.44;5110200;28;19915;-56
2023/05/07 07:47:25;;;;;;;;;;;;;;;22.36;66.44;100007.84;5093096;28;19916;-56
2023/05/07 07:49:50;;;;;;;;;;;;;;;22.48;65.36;100023.13;5093159;28;19951;-56
2023/05/07 07:52:15;;;;;;;;;;;;;;;22.22;67.17;100018.06;5091509;28;19916;-56
2023/05/07 07:54:40;;;;;;;;;;;;;;;22.51;67.20;100014.72;5092490;28;19916;-56
2023/05/07 07:57:06;;;;;;;;;;;;;;;22.83;66.63;100012.97;5091304;28;20256;-56
2023/05/07 07:59:31;;;;;;;;;;;;;;;22.49;66.01;100007.72;5091202;28;19919;-56
2023/05/07 08:01:56;;;;;;;;;;;;;;;23.01;66.18;100006.03;5089576;28;20341;-56
2023/05/07 08:04:22;;;;;;;;;;;;;;;23.73;64.74;100007.06;5091834;28;19924;-56
2023/05/07 08:06:47;;;;;;;;;;;;;;;24.28;60.43;100011.28;5090621;28;19922;-56
2023/05/07 08:09:12;;;;;;;;;;;;;;;24.69;58.81;100005.72;5091896;28;19916;-56
2023/05/07 08:11:38;;;;;;;;;;;;;;;24.80;56.96;100008.31;5091890;28;19920;-56
2023/05/07 08:14:03;;;;;;;;;;;;;;;24.54;57.36;100012.50;5090957;28;19942;-56
2023/05/07 08:16:28;;;;;;;;;;;;;;;24.92;55.90;100012.66;5091436;28;19927;-56
2023/05/07 08:18:54;;;;;;;;;;;;;;;24.93;56.64;100014.34;5091127;28;19926;-56
2023/05/07 08:21:20;;;;;;;;;;;;;;;24.94;57.06;100007.94;5091411;28;19916;-55
2023/05/07 08:23:45;;;;;;;;;;;;;;;24.57;58.03;100012.22;5090154;28;20304;-56
2023/05/07 08:26:11;;;;;;;;;;;;;;;24.63;58.82;100011.66;5092331;28;20015;-56
2023/05/07 08:28:36;;;;;;;;;;;;;;;24.68;60.70;100014.88;5091118;28;19927;-55
2023/05/07 08:31:01;;;;;;;;;;;;;;;24.94;59.84;100016.09;5091919;28;19981;-55
2023/05/07 08:33:27;;;;;;;;;;;;;;;24.68;59.01;100009.44;5091858;28;20533;-55
2023/05/07 08:35:52;;;;;;;;;;;;;;;24.82;59.71;100014.50;5091214;28;20351;-55
2023/05/07 08:38:17;;;;;;;;;;;;;;;25.01;58.63;100021.84;5091694;28;20379;-56
2023/05/07 08:40:43;;;;;;;;;;;;;;;24.97;59.56;100023.97;5090140;28;19920;-56
2023/05/07 08:43:12;;;;;;;;;;;;;;;25.15;57.00;100018.69;5090720;28;19944;-56
2023/05/07 08:45:39;;;;;;;;;;;;;;;25.51;56.27;100029.78;5093447;28;19930;-55
2023/05/07 08:48:08;;;;;;;;;;;;;;;26.01;54.60;100029.56;5090331;28;19926;-55
2023/05/07 08:50:35;;;;;;;;;;;;;;;25.87;54.38;100028.16;5091269;28;19912;-55
2023/05/07 08:53:00;;;;;;;;;;;;;;;26.19;52.96;100016.91;5089858;28;20415;-55
2023/05/07 08:55:25;;;;;;;;;;;;;;;26.27;53.65;100025.22;5091973;28;19970;-55
2023/05/07 08:57:52;;;;;;;;;;;;;;;26.44;52.86;100016.25;5091569;28;19999;-55
2023/05/07 09:00:18;;;;;;;;;;;;;;;26.46;52.15;100008.75;5092046;28;19920;-55
2023/05/07 09:02:43;;;;;;;;;;;;;;;26.24;51.44;100014.59;5090491;28;19920;-55
2023/05/07 09:05:08;;;;;;;;;;;;;;;26.41;52.67;100009.22;5092706;28;20011;-55
2023/05/07 09:07:34;;;;;;;;;;;;;;;27.03;50.64;100008.47;5090068;28;19924;-55
2023/05/07 09:10:02;;;;;;;;;;;;;;;27.44;50.46;100010.63;5091482;28;19912;-55
2023/05/07 09:12:27;;;;;;;;;;;;;;;27.76;49.97;100002.69;5090268;28;19935;-55
2023/05/07 09:14:52;;;;;;;;;;;;;;;28.26;50.09;100009.22;5091371;28;19950;-55
2023/05/07 09:17:17;;;;;;;;;;;;;;;28.63;47.20;100005.34;5091365;28;19965;-55
2023/05/07 09:19:46;;;;;;;;;;;;;;;28.71;46.08;100006.22;5090760;28;19981;-55
2023/05/07 09:22:11;;;;;;;;;;;;;;;28.51;46.47;100012.13;5089273;28;19941;-55
2023/05/07 09:24:37;;;;;;;;;;;;;;;28.61;45.47;100010.13;5090466;28;20429;-56
2023/05/07 09:27:06;;;;;;;;;;;;;;;27.99;45.39;100009.38;5101092;28;19920;-55
2023/05/07 09:29:37;;;;;;;;;;;;;;;28.23;46.89;100001.34;5090026;28;19916;-55
2023/05/07 09:32:06;;;;;;;;;;;;;;;28.36;46.46;99996.28;5089775;28;19921;-55
2023/05/07 09:34:31;;;;;;;;;;;;;;;27.62;48.90;100006.00;5089173;28;20036;-55
2023/05/07 09:36:58;;;;;;;;;;;;;;;28.04;49.90;99996.09;5090480;28;20427;-55
2023/05/07 09:39:25;;;;;;;;;;;;;;;28.25;48.64;99993.81;5090863;28;19916;-55
2023/05/07 09:41:52;;;;;;;;;;;;;;;28.72;46.58;99998.84;5089578;28;19927;-55
2023/05/07 09:44:17;;;;;;;;;;;;;;;28.70;47.22;99987.25;5089843;28;20272;-55
2023/05/07 09:46:43;;;;;;;;;;;;;;;28.63;45.36;99991.66;5089813;28;19924;-55
2023/05/07 09:49:13;;;;;;;;;;;;;;;28.95;45.41;99997.22;5090148;28;19919;-55
2023/05/07 09:51:59;;;;;;;;;;;;;;;29.09;44.75;99999.38;5089692;28;19920;-55
2023/05/07 09:54:25;;;;;;;;;;;;;;;29.06;44.60;99996.94;5110089;28;19919;-55
2023/05/07 09:56:52;;;;;;;;;;;;;;;28.79;46.15;100002.66;5094554;28;20332;-55
2023/05/07 09:59:18;;;;;;;;;;;;;;;28.84;43.85;100001.16;5072005;28;19924;-55
2023/05/07 10:01:44;;;;;;;;;;;;;;;28.88;44.17;99998.94;5089377;28;19927;-56
2023/05/07 10:04:12;;;;;;;;;;;;;;;28.78;47.69;99995.47;5090568;28;19916;-56
2023/05/07 10:06:38;;;;;;;;;;;;;;;29.10;44.66;100001.06;5073270;28;20010;-56
2023/05/07 10:09:07;;;;;;;;;;;;;;;28.79;45.79;99997.19;5085387;28;20449;-56
2023/05/07 10:11:33;;;;;;;;;;;;;;;28.58;45.69;99994.03;5090171;28;19924;-56
2023/05/07 10:13:59;;;;;;;;;;;;;;;28.55;46.09;99995.19;5089908;28;19927;-56
2023/05/07 10:16:25;;;;;;;;;;;;;;;28.41;46.23;99993.06;5089823;28;20463;-56
2023/05/07 10:18:50;;;;;;;;;;;;;;;28.10;46.37;99986.38;5090270;28;20649;-56
2023/05/07 10:21:17;;;;;;;;;;;;;;;28.15;46.18;99993.09;5090022;28;19944;-54
2023/05/07 10:23:44;;;;;;;;;;;;;;;28.09;46.60;99985.53;5089723;28;19916;-55
2023/05/07 10:26:11;;;;;;;;;;;;;;;28.16;46.32;99985.72;5089641;28;20390;-55
2023/05/07 10:28:41;;;;;;;;;;;;;;;27.86;46.16;99983.44;5090081;28;19980;-55
2023/05/07 10:31:10;;;;;;;;;;;;;;;27.78;47.12;99983.38;5089291;28;19997;-55
2023/05/07 10:33:35;;;;;;;;;;;;;;;27.62;48.07;99989.59;5090159;28;19965;-55
2023/05/07 10:36:04;;;;;;;;;;;;;;;27.88;48.45;99985.00;5089925;28;19920;-55
2023/05/07 10:38:29;;;;;;;;;;;;;;;27.82;46.61;99987.53;5089227;28;19916;-55
2023/05/07 10:40:55;;;;;;;;;;;;;;;27.76;47.16;99980.81;5089710;28;20020;-55
2023/05/07 10:43:20;;;;;;;;;;;;;;;27.84;48.75;99983.59;5088944;28;19916;-55
2023/05/07 10:46:05;;;;;;;;;;;;;;;27.95;48.76;99975.19;5090036;28;19927;-55
2023/05/07 10:48:31;;;;;;;;;;;;;;;28.18;47.99;99978.22;5074616;28;20018;-55
2023/05/07 10:51:16;;;;;;;;;;;;;;;28.18;46.38;99986.44;5089670;28;20344;-55
2023/05/07 10:53:41;;;;;;;;;;;;;;;28.25;46.39;99987.50;5091629;28;19920;-55
2023/05/07 10:56:18;;;;;;;;;;;;;;;28.38;46.68;99983.28;5089711;28;19981;-55
2023/05/07 10:58:44;;;;;;;;;;;;;;;27.99;44.84;99984.78;5096134;28;20009;-55
2023/05/07 11:01:12;;;;;;;;;;;;;;;27.93;45.36;99990.91;5093451;28;19916;-55
2023/05/07 11:03:57;;;;;;;;;;;;;;;28.18;46.96;99987.31;5093777;28;20125;-55
2023/05/07 11:06:22;;;;;;;;;;;;;;;28.32;45.61;99985.81;5092407;28;19920;-56
2023/05/07 11:08:55;;;;;;;;;;;;;;;28.65;46.56;99978.66;5093920;28;19912;-56
2023/05/07 11:11:40;;;;;;;;;;;;;;;29.11;45.07;99978.13;5092920;28;19920;-56
2023/05/07 11:14:05;;;;;;;;;;;;;;;29.38;45.63;99978.69;5093415;28;19920;-56
2023/05/07 11:16:33;;;;;;;;;;;;;;;29.37;44.59;99976.13;5092884;28;19970;-55
2023/05/07 11:18:58;;;;;;;;;;;;;;;28.98;43.52;99991.44;5093596;28;19920;-56
2023/05/07 11:21:32;;;;;;;;;;;;;;;28.90;44.73;99991.38;5093745;28;19912;-55
2023/05/07 11:23:58;;;;;;;;;;;;;;;29.04;43.36;99991.63;5092976;28;19916;-55
2023/05/07 11:26:25;;;;;;;;;;;;;;;29.00;44.83;99995.72;5093741;28;20006;-55
2023/05/07 11:28:51;;;;;;;;;;;;;;;29.30;44.14;99997.00;5092523;28;20392;-56
2023/05/07 11:31:20;;;;;;;;;;;;;;;29.39;43.10;100001.47;5096423;28;20513;-55
2023/05/07 11:33:45;;;;;;;;;;;;;;;29.32;44.10;99973.03;5093287;28;19923;-55
2023/05/07 11:36:10;;;;;;;;;;;;;;;29.14;43.59;99991.50;5092551;28;19916;-55
2023/05/07 11:38:36;;;;;;;;;;;;;;;29.35;43.15;99994.59;5074779;28;19923;-55
2023/05/07 11:41:04;;;;;;;;;;;;;;;29.44;43.81;99994.44;5091412;28;20003;-56
2023/05/07 11:43:29;;;;;;;;;;;;;;;29.65;45.29;99993.94;5090821;28;20430;-56
2023/05/07 11:46:04;;;;;;;;;;;;;;;29.78;42.75;99997.03;5090677;28;19942;-56
2023/05/07 11:48:30;;;;;;;;;;;;;;;29.85;40.51;99989.84;5090432;28;19928;-56
2023/05/07 11:50:58;;;;;;;;;;;;;;;30.09;40.56;99995.28;5090670;28;19927;-56
2023/05/07 11:53:27;;;;;;;;;;;;;;;29.98;40.97;99992.06;5091366;28;19931;-56
2023/05/07 11:55:52;;;;;;;;;;;;;;;29.50;41.20;99993.78;5111691;28;20550;-55
2023/05/07 11:58:21;;;;;;;;;;;;;;;29.57;42.92;99993.94;5110722;28;19912;-56
2023/05/07 12:00:49;;;;;;;;;;;;;;;29.48;42.65;99994.94;5090506;28;20013;-55
2023/05/07 12:03:15;;;;;;;;;;;;;;;29.27;42.26;99998.22;5092745;28;20057;-55
2023/05/07 12:05:41;;;;;;;;;;;;;;;29.09;42.64;99999.38;5091906;28;20003;-55
2023/05/07 12:08:06;;;;;;;;;;;;;;;29.06;44.22;100002.41;5092074;28;20014;-55
2023/05/07 12:10:32;;;;;;;;;;;;;;;28.68;43.43;100000.22;5092761;28;20387;-56
2023/05/07 12:12:57;;;;;;;;;;;;;;;28.44;44.96;100003.66;5092514;28;19924;-56
2023/05/07 12:15:22;;;;;;;;;;;;;;;28.29;45.86;100003.44;5091439;28;20011;-56
2023/05/07 12:17:48;;;;;;;;;;;;;;;28.33;46.17;100002.09;5092020;28;19922;-56
2023/05/07 12:20:14;;;;;;;;;;;;;;;28.17;46.80;100001.16;5092185;28;19947;-56
2023/05/07 12:22:40;;;;;;;;;;;;;;;28.04;48.14;100007.03;5092330;28;19940;-56
2023/05/07 12:25:06;;;;;;;;;;;;;;;28.24;48.30;100003.06;5092220;28;19923;-56
2023/05/07 12:27:31;;;;;;;;;;;;;;;28.14;46.68;100002.31;5092009;28;19924;-56
2023/05/07 12:29:57;;;;;;;;;;;;;;;28.15;46.93;100004.03;5081709;28;19942;-56
2023/05/07 12:32:22;;;;;;;;;;;;;;;28.44;45.38;100000.94;5092102;28;19963;-57
2023/05/07 12:34:51;;;;;;;;;;;;;;;28.90;46.52;100002.34;5090982;28;19916;-56